Time;durP1;ratioP1;P1;durP2;ratioP2;P2;SDS_P1;SDS_P2;PMS_P1;PMS_P2;Temp;Humidity;BMP_temperature;BMP_pressure;BME280_temperature;BME280_humidity;BME280_pressure;Samples;Min_cycle;Max_cycle;Signal;HPM_P1;HPM_P2
2023/12/16 00:00:22;;;;;;;25.33;7.15;;;;;;;6.78;100.00;103804.22;5071153;28;20071;-57
2023/12/16 00:02:48;;;;;;;25.02;7.22;;;;;;;6.78;100.00;103806.16;5071194;28;20081;-56
2023/12/16 00:05:13;;;;;;;22.88;6.78;;;;;;;6.78;100.00;103806.16;5071009;28;20079;-57
2023/12/16 00:07:38;;;;;;;23.02;6.50;;;;;;;6.77;100.00;103815.47;5070754;28;20470;-56
2023/12/16 00:10:06;;;;;;;22.13;6.70;;;;;;;6.79;100.00;103813.34;5070922;28;20039;-57
2023/12/16 00:12:31;;;;;;;23.88;6.80;;;;;;;6.75;100.00;103801.06;5069549;28;20040;-56
2023/12/16 00:14:56;;;;;;;22.67;6.03;;;;;;;6.80;100.00;103810.38;5071030;28;20441;-56
2023/12/16 00:17:23;;;;;;;23.67;6.40;;;;;;;6.78;100.00;103804.22;5070717;28;20103;-57
2023/12/16 00:19:49;;;;;;;22.83;6.30;;;;;;;6.77;100.00;103797.03;5070868;28;20054;-59
2023/12/16 00:22:15;;;;;;;22.05;7.00;;;;;;;6.76;100.00;103806.34;5070811;28;20036;-56
2023/12/16 00:24:41;;;;;;;21.63;6.57;;;;;;;6.75;100.00;103804.66;5070774;28;20411;-56
2023/12/16 00:27:06;;;;;;;20.77;5.90;;;;;;;6.74;100.00;103804.84;5069107;28;20567;-57
2023/12/16 00:29:31;;;;;;;21.58;6.22;;;;;;;6.76;100.00;103800.00;5070659;28;20025;-57
2023/12/16 00:31:57;;;;;;;21.58;5.82;;;;;;;6.79;100.00;103800.44;5070568;28;20035;-56
2023/12/16 00:34:22;;;;;;;21.75;6.00;;;;;;;6.76;100.00;103791.75;5070607;28;20034;-57
2023/12/16 00:36:48;;;;;;;19.92;5.70;;;;;;;6.74;100.00;103789.22;5070673;28;20537;-57
2023/12/16 00:39:14;;;;;;;24.10;6.45;;;;;;;6.72;100.00;103783.06;5065246;28;20123;-57
2023/12/16 00:41:39;;;;;;;24.90;6.80;;;;;;;6.74;100.00;103780.09;5035951;28;20107;-57
2023/12/16 00:44:04;;;;;;;23.30;6.28;;;;;;;6.74;100.00;103778.22;5050522;28;20388;-57
2023/12/16 00:46:31;;;;;;;21.42;5.53;;;;;;;6.71;100.00;103790.44;5051430;28;20033;-57
2023/12/16 00:48:56;;;;;;;23.55;5.97;;;;;;;6.70;100.00;103794.28;5070417;28;20036;-58
2023/12/16 00:51:22;;;;;;;19.92;5.43;;;;;;;6.70;100.00;103785.16;5068125;28;20021;-57
2023/12/16 00:53:47;;;;;;;22.73;5.72;;;;;;;6.70;100.00;103787.91;5051486;28;20025;-57
2023/12/16 00:56:13;;;;;;;19.58;5.47;;;;;;;6.70;100.00;103782.41;5053091;28;20052;-57
2023/12/16 00:58:38;;;;;;;20.73;5.35;;;;;;;6.70;100.00;103791.53;5054153;28;20123;-57
2023/12/16 01:01:03;;;;;;;21.52;5.32;;;;;;;6.66;100.00;103789.41;5054578;28;20491;-57
2023/12/16 01:03:28;;;;;;;24.15;6.00;;;;;;;6.64;100.00;103789.59;5054302;28;20065;-57
2023/12/16 01:05:54;;;;;;;21.23;5.45;;;;;;;6.61;100.00;103801.03;5053866;28;20040;-57
2023/12/16 01:08:19;;;;;;;25.08;6.00;;;;;;;6.63;100.00;103792.56;5054363;28;20017;-57
2023/12/16 01:10:44;;;;;;;20.45;5.47;;;;;;;6.62;100.00;103786.19;5054222;28;20033;-57
2023/12/16 01:13:10;;;;;;;24.08;5.88;;;;;;;6.61;100.00;103786.41;5054159;28;20053;-57
2023/12/16 01:15:36;;;;;;;23.17;5.90;;;;;;;6.56;100.00;103793.38;5054356;28;20434;-57
2023/12/16 01:18:01;;;;;;;23.90;5.78;;;;;;;6.52;100.00;103783.84;5054570;28;20208;-57
2023/12/16 01:20:27;;;;;;;21.88;5.70;;;;;;;6.49;100.00;103784.25;5054100;28;20498;-57
2023/12/16 01:22:52;;;;;;;21.38;5.40;;;;;;;6.49;100.00;103794.41;5054269;28;20403;-56
2023/12/16 01:25:17;;;;;;;21.92;5.28;;;;;;;6.49;100.00;103787.00;5054112;28;20464;-57
2023/12/16 01:27:42;;;;;;;23.63;6.07;;;;;;;6.49;100.00;103787.00;5054049;28;20108;-56
2023/12/16 01:30:09;;;;;;;19.33;5.22;;;;;;;6.49;100.00;103780.66;5053960;28;20389;-56
2023/12/16 01:32:34;;;;;;;21.83;5.32;;;;;;;6.47;100.00;103791.03;5053869;28;20055;-57
2023/12/16 01:34:59;;;;;;;20.25;5.05;;;;;;;6.46;100.00;103773.69;5053817;28;20138;-56
2023/12/16 01:37:26;;;;;;;21.35;5.05;;;;;;;6.47;100.00;103767.09;5053834;28;20098;-56
2023/12/16 01:39:51;;;;;;;21.77;5.47;;;;;;;6.45;100.00;103771.13;5052327;28;20025;-57
2023/12/16 01:42:18;;;;;;;20.77;4.70;;;;;;;6.43;100.00;103773.22;5053613;28;20447;-56
2023/12/16 01:44:43;;;;;;;23.65;5.60;;;;;;;6.40;100.00;103775.34;5053774;28;20094;-57
2023/12/16 01:47:08;;;;;;;22.65;5.40;;;;;;;6.40;100.00;103775.34;5060792;28;20029;-57
2023/12/16 01:49:34;;;;;;;21.70;4.93;;;;;;;6.43;100.00;103773.22;5073528;28;20052;-57
2023/12/16 01:51:59;;;;;;;19.48;4.90;;;;;;;6.42;100.00;103768.81;5073473;28;20177;-56
2023/12/16 01:54:26;;;;;;;23.38;5.18;;;;;;;6.39;100.00;103770.91;5073303;28;20370;-57
2023/12/16 01:56:59;;;;;;;18.42;4.72;;;;;;;6.40;100.00;103772.59;5073418;28;20092;-56
2023/12/16 01:59:26;;;;;;;20.85;4.85;;;;;;;6.34;100.00;103765.16;5074018;28;20032;-56
2023/12/16 02:01:51;;;;;;;18.27;4.60;;;;;;;6.33;100.00;103766.19;5071996;28;20365;-57
2023/12/16 02:04:19;;;;;;;20.33;4.90;;;;;;;6.27;100.00;103753.28;5072893;28;20050;-57
2023/12/16 02:06:44;;;;;;;20.20;4.40;;;;;;;6.29;100.00;103767.69;5072899;28;20413;-56
2023/12/16 02:09:10;;;;;;;19.25;4.68;;;;;;;6.30;100.00;103772.13;5073351;28;20036;-55
2023/12/16 02:11:36;;;;;;;19.60;4.82;;;;;;;6.28;100.00;103776.16;5073038;28;20448;-55
2023/12/16 02:14:01;;;;;;;25.42;4.90;;;;;;;6.26;100.00;103778.25;5073104;28;20029;-55
2023/12/16 02:16:27;;;;;;;18.55;5.00;;;;;;;6.26;100.00;103783.75;5073076;28;20044;-55
2023/12/16 02:18:52;;;;;;;17.85;4.63;;;;;;;6.23;100.00;103783.09;5072982;28;20032;-55
2023/12/16 02:21:17;;;;;;;19.15;4.90;;;;;;;6.20;100.00;103786.25;5073508;28;20029;-56
2023/12/16 02:23:43;;;;;;;20.30;4.57;;;;;;;6.17;100.00;103789.41;5073642;28;20031;-56
2023/12/16 02:26:08;;;;;;;21.70;4.70;;;;;;;6.16;100.00;103784.97;5073532;28;20063;-55
2023/12/16 02:28:34;;;;;;;20.02;4.47;;;;;;;6.14;100.00;103783.50;5073630;28;20042;-55
2023/12/16 02:30:59;;;;;;;18.55;4.30;;;;;;;6.13;100.00;103785.38;5073498;28;20043;-57
2023/12/16 02:33:24;;;;;;;21.25;5.55;;;;;;;6.09;100.00;103787.69;5073081;28;20149;-55
2023/12/16 02:35:49;;;;;;;23.17;5.00;;;;;;;5.99;100.00;103781.69;5073005;28;20032;-55
2023/12/16 02:38:15;;;;;;;21.27;4.75;;;;;;;5.99;100.00;103781.69;5073053;28;20024;-55
2023/12/16 02:40:42;;;;;;;19.23;4.88;;;;;;;5.95;100.00;103777.66;5072991;28;20383;-55
2023/12/16 02:43:08;;;;;;;19.70;4.53;;;;;;;5.89;100.00;103771.06;5073267;28;20050;-55
2023/12/16 02:45:33;;;;;;;17.80;4.65;;;;;;;5.86;100.00;103779.69;5072853;28;20391;-56
2023/12/16 02:47:59;;;;;;;21.48;4.85;;;;;;;5.87;100.00;103775.03;5072816;28;20029;-56
2023/12/16 02:50:24;;;;;;;19.83;4.35;;;;;;;5.83;100.00;103771.84;5072773;28;20124;-56
2023/12/16 02:52:50;;;;;;;19.48;4.75;;;;;;;5.80;100.00;103771.41;5072620;28;20016;-56
2023/12/16 02:55:17;;;;;;;20.58;4.75;;;;;;;5.76;100.00;103762.72;5071201;28;20045;-55
2023/12/16 02:57:42;;;;;;;22.35;5.43;;;;;;;5.73;100.00;103763.13;5072713;28;20104;-55
2023/12/16 03:00:08;;;;;;;20.90;4.75;;;;;;;5.68;100.00;103776.63;5065726;28;20127;-55
2023/12/16 03:02:34;;;;;;;18.98;4.43;;;;;;;5.65;100.00;103775.13;5052269;28;20025;-57
2023/12/16 03:04:59;;;;;;;20.35;4.93;;;;;;;5.63;100.00;103785.47;5052301;28;20036;-56
2023/12/16 03:07:24;;;;;;;19.20;5.07;;;;;;;5.61;100.00;103788.41;5052241;28;20036;-56
2023/12/16 03:09:49;;;;;;;17.85;4.97;;;;;;;5.58;100.00;103779.72;5052227;28;20043;-57
2023/12/16 03:12:15;;;;;;;20.63;4.95;;;;;;;5.56;100.00;103777.16;5052329;28;20021;-56
2023/12/16 03:14:41;;;;;;;21.38;5.22;;;;;;;5.55;100.00;103769.97;5052280;28;20049;-55
2023/12/16 03:17:07;;;;;;;20.52;5.07;;;;;;;5.55;100.00;103767.22;5051401;28;20538;-56
2023/12/16 03:19:32;;;;;;;24.35;4.63;;;;;;;5.54;100.00;103770.19;5052433;28;20472;-56
2023/12/16 03:21:58;;;;;;;19.15;4.93;;;;;;;5.55;100.00;103763.66;5052148;28;20055;-56
2023/12/16 03:24:23;;;;;;;23.42;5.22;;;;;;;5.54;100.00;103761.94;5052159;28;20151;-57
2023/12/16 03:26:48;;;;;;;21.15;5.05;;;;;;;5.51;100.00;103771.44;5051989;28;20083;-57
2023/12/16 03:29:14;;;;;;;20.20;4.55;;;;;;;5.47;100.00;103767.38;5052086;28;20082;-56
2023/12/16 03:31:39;;;;;;;22.80;5.35;;;;;;;5.44;100.00;103754.03;5051966;28;20029;-56
2023/12/16 03:34:04;;;;;;;22.02;5.43;;;;;;;5.40;100.00;103756.34;5051836;28;20515;-56
2023/12/16 03:36:30;;;;;;;19.92;4.47;;;;;;;5.39;100.00;103757.38;5051965;28;20031;-56
2023/12/16 03:38:56;;;;;;;19.83;4.60;;;;;;;5.36;100.00;103759.69;5051763;28;20039;-56
2023/12/16 03:41:21;;;;;;;22.50;4.60;;;;;;;5.35;100.00;103768.97;5051944;28;20560;-56
2023/12/16 03:43:46;;;;;;;21.15;5.22;;;;;;;5.38;100.00;103772.19;5051829;28;20484;-56
2023/12/16 03:46:11;;;;;;;19.20;5.35;;;;;;;5.38;100.00;103769.44;5051659;28;20021;-56
2023/12/16 03:48:37;;;;;;;19.85;5.20;;;;;;;5.40;100.00;103761.00;5051668;28;20032;-56
2023/12/16 03:51:03;;;;;;;19.13;4.97;;;;;;;5.40;100.00;103763.75;5051687;28;20035;-56
2023/12/16 03:53:28;;;;;;;20.58;4.90;;;;;;;5.38;100.00;103763.94;5051634;28;20465;-55
2023/12/16 03:55:53;;;;;;;20.70;5.32;;;;;;;5.38;100.00;103768.56;5051407;28;20044;-56
2023/12/16 03:58:19;;;;;;;22.08;5.47;;;;;;;5.37;100.00;103766.88;5051562;28;20116;-56
2023/12/16 04:00:44;;;;;;;22.38;5.28;;;;;;;5.38;100.00;103766.69;5051614;28;20060;-56
2023/12/16 04:03:09;;;;;;;20.55;4.65;;;;;;;5.41;100.00;103766.28;5051350;28;20024;-56
2023/12/16 04:05:35;;;;;;;24.00;5.22;;;;;;;5.41;100.00;103757.22;5051274;28;20147;-56
2023/12/16 04:08:00;;;;;;;22.00;5.03;;;;;;;5.40;100.00;103763.75;5050989;28;20438;-56
2023/12/16 04:10:26;;;;;;;21.23;5.50;;;;;;;5.42;100.00;103769.91;5051464;28;20032;-56
2023/12/16 04:12:51;;;;;;;23.20;5.18;;;;;;;5.44;100.00;103771.38;5051345;28;20051;-56
2023/12/16 04:15:16;;;;;;;20.88;4.88;;;;;;;5.51;100.00;103778.81;5051134;28;20077;-56
2023/12/16 04:17:42;;;;;;;21.67;4.80;;;;;;;5.55;100.00;103774.63;5051350;28;20029;-56
2023/12/16 04:20:07;;;;;;;19.58;4.78;;;;;;;5.55;100.00;103774.63;5051321;28;20033;-56
2023/12/16 04:22:33;;;;;;;23.08;5.82;;;;;;;5.60;100.00;103783.09;5051283;28;20548;-56
2023/12/16 04:24:58;;;;;;;20.75;5.93;;;;;;;5.58;100.00;103777.81;5051310;28;20036;-56
2023/12/16 04:27:24;;;;;;;22.83;5.15;;;;;;;5.61;100.00;103773.81;5050955;28;20107;-56
2023/12/16 04:29:49;;;;;;;17.60;4.75;;;;;;;5.60;100.00;103767.50;5051040;28;20123;-57
2023/12/16 04:32:15;;;;;;;22.20;5.13;;;;;;;5.57;100.00;103765.13;5051174;28;20104;-57
2023/12/16 04:34:40;;;;;;;21.65;5.28;;;;;;;5.56;100.00;103759.84;5051139;28;20028;-57
2023/12/16 04:37:05;;;;;;;20.65;5.78;;;;;;;5.56;100.00;103760.69;5051702;28;20028;-57
2023/12/16 04:39:31;;;;;;;19.85;5.30;;;;;;;5.58;100.00;103760.47;5055313;28;20032;-57
2023/12/16 04:41:56;;;;;;;18.67;4.78;;;;;;;5.63;100.00;103753.34;5050928;28;20104;-57
2023/12/16 04:44:21;;;;;;;23.67;5.90;;;;;;;5.63;100.00;103745.09;5050808;28;20094;-57
2023/12/16 04:46:46;;;;;;;22.40;5.35;;;;;;;5.64;100.00;103751.47;5051431;28;20032;-56
2023/12/16 04:49:12;;;;;;;20.40;5.32;;;;;;;5.67;100.00;103755.69;5055697;28;20028;-57
2023/12/16 04:51:37;;;;;;;22.73;5.50;;;;;;;5.65;100.00;103744.06;5071132;28;20383;-57
2023/12/16 04:54:02;;;;;;;21.05;5.82;;;;;;;5.62;100.00;103750.81;5061978;28;20040;-57
2023/12/16 04:56:28;;;;;;;21.00;5.10;;;;;;;5.54;100.00;103749.06;5051033;28;20146;-57
2023/12/16 04:58:53;;;;;;;19.23;5.00;;;;;;;5.52;100.00;103750.31;5049414;28;20472;-57
2023/12/16 05:01:18;;;;;;;21.63;5.35;;;;;;;5.50;100.00;103747.78;5050608;28;20606;-57
2023/12/16 05:03:43;;;;;;;22.63;5.47;;;;;;;5.45;100.00;103759.34;5049452;28;20047;-56
2023/12/16 05:06:09;;;;;;;21.55;5.13;;;;;;;5.42;100.00;103758.91;5050879;28;20036;-56
2023/12/16 05:08:34;;;;;;;21.55;5.03;;;;;;;5.41;100.00;103757.22;5050628;28;20774;-56
2023/12/16 05:11:00;;;;;;;18.20;4.90;;;;;;;5.38;100.00;103754.84;5050765;28;20041;-56
2023/12/16 05:13:25;;;;;;;19.27;5.03;;;;;;;5.33;100.00;103749.97;5050704;28;20542;-57
2023/12/16 05:15:51;;;;;;;23.60;5.38;;;;;;;5.31;100.00;103776.75;5050496;28;20115;-56
2023/12/16 05:18:17;;;;;;;24.55;5.03;;;;;;;5.27;100.00;103767.22;5050625;28;20083;-56
2023/12/16 05:20:43;;;;;;;20.30;6.03;;;;;;;5.26;100.00;103771.84;5050691;28;20040;-56
2023/12/16 05:23:08;;;;;;;23.58;5.40;;;;;;;5.24;100.00;103776.69;5049336;28;20484;-56
2023/12/16 05:25:33;;;;;;;22.00;5.10;;;;;;;5.25;100.00;103774.81;5050756;28;20037;-56
2023/12/16 05:27:59;;;;;;;21.98;5.20;;;;;;;5.22;100.00;103775.19;5049105;28;20082;-56
2023/12/16 05:30:24;;;;;;;21.35;4.93;;;;;;;5.20;100.00;103769.06;5050571;28;20036;-56
2023/12/16 05:32:50;;;;;;;22.58;5.57;;;;;;;5.20;100.00;103767.16;5050563;28;20051;-56
2023/12/16 05:35:15;;;;;;;19.98;4.80;;;;;;;5.20;100.00;103769.91;5050664;28;20475;-56
2023/12/16 05:37:40;;;;;;;20.52;5.22;;;;;;;5.18;100.00;103763.78;5049452;28;20140;-57
2023/12/16 05:40:06;;;;;;;21.52;5.60;;;;;;;5.20;100.00;103767.16;5051911;28;20039;-56
2023/12/16 05:42:31;;;;;;;21.25;4.90;;;;;;;5.16;100.00;103763.13;5054334;28;20465;-56
2023/12/16 05:44:57;;;;;;;21.98;4.88;;;;;;;5.17;100.00;103772.22;5054234;28;20502;-56
2023/12/16 05:47:22;;;;;;;25.60;5.85;;;;;;;5.17;100.00;103766.72;5054171;28;20025;-56
2023/12/16 05:49:48;;;;;;;22.05;5.28;;;;;;;5.12;100.00;103768.16;5054146;28;20027;-55
2023/12/16 05:52:13;;;;;;;24.88;5.43;;;;;;;5.08;100.00;103757.75;5053993;28;20544;-56
2023/12/16 05:54:39;;;;;;;24.23;5.35;;;;;;;5.07;100.00;103761.56;5053209;28;20557;-56
2023/12/16 05:57:04;;;;;;;23.85;5.40;;;;;;;5.04;100.00;103770.19;5053537;28;20388;-56
2023/12/16 05:59:29;;;;;;;21.42;5.43;;;;;;;5.02;100.00;103764.06;5052948;28;20108;-56
2023/12/16 06:01:55;;;;;;;21.17;4.95;;;;;;;4.95;100.00;103751.13;5052635;28;20714;-55
2023/12/16 06:04:21;;;;;;;20.50;4.95;;;;;;;4.94;100.00;103757.66;5052842;28;20029;-56
2023/12/16 06:06:46;;;;;;;21.23;5.53;;;;;;;4.95;100.00;103758.50;5052260;28;20076;-56
2023/12/16 06:09:12;;;;;;;21.83;5.00;;;;;;;4.95;100.00;103762.09;5052304;28;20108;-55
2023/12/16 06:11:37;;;;;;;22.50;5.05;;;;;;;4.92;100.00;103765.22;5052161;28;20036;-56
2023/12/16 06:14:03;;;;;;;20.15;5.38;;;;;;;4.93;100.00;103763.31;5051911;28;20052;-56
2023/12/16 06:16:28;;;;;;;20.90;4.50;;;;;;;4.95;100.00;103772.22;5052360;28;20029;-56
2023/12/16 06:18:54;;;;;;;19.65;4.70;;;;;;;4.98;100.00;103764.44;5052017;28;20557;-57
2023/12/16 06:21:19;;;;;;;21.30;5.28;;;;;;;4.98;100.00;103763.59;5051872;28;20472;-57
2023/12/16 06:23:44;;;;;;;21.88;5.22;;;;;;;4.96;100.00;103768.44;5051760;28;20029;-57
2023/12/16 06:26:10;;;;;;;19.08;4.60;;;;;;;4.92;100.00;103761.63;5051639;28;20025;-56
2023/12/16 06:28:35;;;;;;;22.55;5.55;;;;;;;4.89;100.00;103764.78;5051295;28;20037;-57
2023/12/16 06:31:00;;;;;;;23.08;4.75;;;;;;;4.86;100.00;103760.53;5051376;28;20037;-57
2023/12/16 06:33:26;;;;;;;26.10;5.28;;;;;;;4.83;100.00;103759.00;5051361;28;20389;-56
2023/12/16 06:35:51;;;;;;;28.95;5.60;;;;;;;4.86;100.00;103759.66;5050783;28;20452;-56
2023/12/16 06:38:16;;;;;;;24.45;5.25;;;;;;;4.85;100.00;103758.84;5050732;28;20066;-57
2023/12/16 06:40:42;;;;;;;24.70;5.38;;;;;;;4.83;100.00;103758.16;5050109;28;20025;-56
2023/12/16 06:43:07;;;;;;;20.92;5.07;;;;;;;4.81;100.00;103763.00;5050653;28;20479;-57
2023/12/16 06:45:33;;;;;;;21.63;4.78;;;;;;;4.80;100.00;103764.91;5051177;28;20040;-57
2023/12/16 06:47:59;;;;;;;22.50;5.25;;;;;;;4.73;100.00;103765.88;5050976;28;20500;-57
2023/12/16 06:50:25;;;;;;;22.02;4.88;;;;;;;4.72;100.00;103767.78;5050562;28;20079;-55
2023/12/16 06:52:51;;;;;;;22.63;5.18;;;;;;;4.72;100.00;103764.16;5050656;28;20025;-55
2023/12/16 06:55:16;;;;;;;22.05;5.50;;;;;;;4.69;100.00;103769.00;5049813;28;20056;-57
2023/12/16 06:57:41;;;;;;;21.27;4.97;;;;;;;4.68;100.00;103771.94;5050284;28;20392;-56
2023/12/16 07:00:09;;;;;;;20.00;4.55;;;;;;;4.65;100.00;103773.19;5050655;28;20119;-56
2023/12/16 07:02:35;;;;;;;21.55;5.10;;;;;;;4.67;100.00;103775.72;5050639;28;20040;-57
2023/12/16 07:05:00;;;;;;;20.20;5.07;;;;;;;4.66;100.00;103777.63;5048807;28;20029;-57
2023/12/16 07:07:26;;;;;;;23.45;5.13;;;;;;;4.59;100.00;103767.63;5050335;28;20029;-55
2023/12/16 07:09:51;;;;;;;17.73;4.38;;;;;;;4.56;100.00;103763.38;5050430;28;20050;-56
2023/12/16 07:12:16;;;;;;;22.17;4.88;;;;;;;4.51;100.00;103761.22;5050309;28;20029;-56
2023/12/16 07:14:43;;;;;;;20.60;4.75;;;;;;;4.50;100.00;103775.09;5050152;28;20476;-56
2023/12/16 07:17:08;;;;;;;19.15;4.85;;;;;;;4.52;100.00;103775.75;5050512;28;20530;-56
2023/12/16 07:19:34;;;;;;;22.88;5.72;;;;;;;4.44;100.00;103767.66;5050267;28;20025;-56
2023/12/16 07:22:00;;;;;;;18.55;4.57;;;;;;;4.51;100.00;103783.16;5050604;28;20404;-56
2023/12/16 07:24:25;;;;;;;22.63;4.88;;;;;;;4.50;100.00;103781.44;5050303;28;20039;-56
2023/12/16 07:26:50;;;;;;;22.42;6.35;;;;;;;4.54;100.00;103798.34;5050387;28;20029;-56
2023/12/16 07:29:16;;;;;;;20.02;5.80;;;;;;;4.56;100.00;103795.41;5050003;28;20025;-56
2023/12/16 07:31:48;;;;;;;20.95;4.80;;;;;;;4.59;100.00;103795.03;5049599;28;20025;-56
2023/12/16 07:34:14;;;;;;;23.63;4.90;;;;;;;4.56;100.00;103793.53;5050785;28;20033;-57
2023/12/16 07:36:39;;;;;;;19.88;4.63;;;;;;;4.58;100.00;103796.91;5051640;28;20032;-57
2023/12/16 07:39:04;;;;;;;23.85;5.30;;;;;;;4.57;100.00;103805.34;5050105;28;20029;-57
2023/12/16 07:41:30;;;;;;;19.15;4.88;;;;;;;4.55;100.00;103801.94;5050987;28;20025;-56
2023/12/16 07:43:55;;;;;;;20.83;4.53;;;;;;;4.55;100.00;103796.47;5050820;28;20025;-57
2023/12/16 07:46:20;;;;;;;22.23;4.90;;;;;;;4.53;100.00;103797.50;5051067;28;20132;-57
2023/12/16 07:48:46;;;;;;;21.25;4.60;;;;;;;4.56;100.00;103792.69;5051556;28;20028;-57
2023/12/16 07:51:16;;;;;;;24.17;5.38;;;;;;;4.57;100.00;103794.38;5051180;28;20133;-57
2023/12/16 07:53:46;;;;;;;22.23;5.32;;;;;;;4.57;100.00;103791.63;5051006;28;20525;-57
2023/12/16 07:56:23;;;;;;;20.90;5.18;;;;;;;4.61;100.00;103793.78;5051384;28;20057;-56
2023/12/16 07:58:50;;;;;;;23.50;4.95;;;;;;;4.62;100.00;103800.97;5051802;28;20059;-56
2023/12/16 08:01:16;;;;;;;19.70;4.47;;;;;;;4.66;100.00;103804.19;5051592;28;20054;-57
2023/12/16 08:03:42;;;;;;;19.17;4.50;;;;;;;4.64;100.00;103807.13;5051310;28;20033;-57
2023/12/16 08:06:11;;;;;;;18.42;4.50;;;;;;;4.72;100.00;103816.28;5051685;28;20024;-57
2023/12/16 08:08:38;;;;;;;19.10;4.50;;;;;;;4.74;100.00;103820.53;5051806;28;20055;-57
2023/12/16 08:11:04;;;;;;;18.33;4.05;;;;;;;4.79;100.00;103825.44;5051459;28;20021;-56
2023/12/16 08:13:30;;;;;;;21.50;5.10;;;;;;;4.83;100.00;103813.03;5051291;28;20033;-56
2023/12/16 08:15:55;;;;;;;22.15;4.93;;;;;;;4.87;100.00;103825.31;5052158;28;20103;-56
2023/12/16 08:18:20;;;;;;;22.90;5.50;;;;;;;4.97;100.00;103828.59;5059059;28;20468;-56
2023/12/16 08:20:45;;;;;;;22.95;6.40;;;;;;;4.98;100.00;103823.97;5062442;28;20078;-56
2023/12/16 08:23:11;;;;;;;21.10;5.07;;;;;;;5.03;100.00;103828.88;5070010;28;20521;-57
2023/12/16 08:25:36;;;;;;;21.00;4.70;;;;;;;5.09;100.00;103831.69;5058329;28;20040;-57
2023/12/16 08:28:01;;;;;;;22.27;4.15;;;;;;;5.11;100.00;103832.31;5071024;28;20028;-56
2023/12/16 08:30:27;;;;;;;22.38;4.70;;;;;;;5.11;100.00;103826.81;5060110;28;20029;-58
2023/12/16 08:32:53;;;;;;;20.38;4.60;;;;;;;5.16;100.00;103826.22;5067196;28;20032;-56
2023/12/16 08:35:18;;;;;;;20.05;4.13;;;;;;;5.21;100.00;103828.41;5060734;28;20074;-56
2023/12/16 08:37:44;;;;;;;21.85;5.20;;;;;;;5.23;100.00;103826.31;5043879;28;20029;-56
2023/12/16 08:40:10;;;;;;;24.70;4.65;;;;;;;5.27;100.00;103822.97;5045672;28;20378;-57
2023/12/16 08:42:36;;;;;;;20.88;4.97;;;;;;;5.42;100.00;103839.38;5050906;28;20029;-57
2023/12/16 08:45:02;;;;;;;22.13;4.60;;;;;;;5.52;100.00;103836.31;5051805;28;20017;-56
2023/12/16 08:47:27;;;;;;;22.15;4.40;;;;;;;5.61;100.00;103831.50;5061565;28;20024;-55
2023/12/16 08:49:53;;;;;;;19.15;4.30;;;;;;;5.66;100.00;103826.28;5039012;28;20103;-56
2023/12/16 08:52:18;;;;;;;22.42;5.30;;;;;;;5.69;100.00;103820.34;5055247;28;20075;-55
2023/12/16 08:54:44;;;;;;;18.52;4.50;;;;;;;5.71;100.00;103825.69;5050532;28;20416;-56
2023/12/16 08:57:09;;;;;;;20.08;4.78;;;;;;;5.76;100.00;103823.16;5055911;28;20119;-55
2023/12/16 08:59:35;;;;;;;21.48;4.30;;;;;;;5.80;100.00;103832.72;5027837;28;20040;-56
2023/12/16 09:02:00;;;;;;;22.50;4.75;;;;;;;5.90;100.00;103840.59;5047038;28;20028;-56
2023/12/16 09:04:26;;;;;;;20.38;4.57;;;;;;;5.99;100.00;103844.03;5059469;28;20025;-57
2023/12/16 09:06:51;;;;;;;24.25;4.32;;;;;;;6.05;100.00;103846.00;5049208;28;20492;-56
2023/12/16 09:09:16;;;;;;;18.17;4.30;;;;;;;6.04;100.00;103842.44;5062553;28;20029;-56
2023/12/16 09:11:44;;;;;;;21.15;4.40;;;;;;;6.08;100.00;103837.38;5065769;28;20123;-49
2023/12/16 09:14:09;;;;;;;18.90;4.07;;;;;;;6.15;100.00;103843.75;5065032;28;20075;-50
2023/12/16 09:16:34;;;;;;;21.27;4.72;;;;;;;6.19;100.00;103847.78;5052784;28;20080;-49
2023/12/16 09:19:00;;;;;;;22.67;4.80;;;;;;;6.24;100.00;103838.91;5068866;28;20032;-55
2023/12/16 09:21:25;;;;;;;22.30;4.60;;;;;;;6.33;100.00;103836.84;5063333;28;20040;-46
2023/12/16 09:23:50;;;;;;;21.73;5.00;;;;;;;6.42;100.00;103841.13;5073060;28;20388;-49
2023/12/16 09:26:16;;;;;;;22.40;4.85;;;;;;;6.51;100.00;103842.66;5062292;28;20031;-55
2023/12/16 09:28:41;;;;;;;24.67;6.43;;;;;;;6.55;100.00;103848.59;5052572;28;20127;-56
2023/12/16 09:31:06;;;;;;;23.92;5.00;;;;;;;6.62;100.00;103843.97;5058770;28;20048;-56
2023/12/16 09:33:32;;;;;;;21.45;5.05;;;;;;;6.71;100.00;103850.16;5061548;28;20025;-56
2023/12/16 09:35:58;;;;;;;21.08;4.50;;;;;;;6.81;100.00;103858.00;5051803;28;20461;-58
2023/12/16 09:38:23;;;;;;;21.35;5.30;;;;;;;6.86;100.00;103858.25;5061109;28;20040;-57
2023/12/16 09:40:48;;;;;;;22.90;5.00;;;;;;;6.92;100.00;103859.31;5072450;28;20120;-56
2023/12/16 09:43:17;;;;;;;19.95;4.75;;;;;;;6.96;100.00;103861.44;5067598;28;20037;-56
2023/12/16 09:45:46;;;;;;;24.17;5.68;;;;;;;7.02;100.00;103877.13;5056325;28;20083;-58
2023/12/16 09:48:14;;;;;;;19.27;5.15;;;;;;;7.08;100.00;103872.69;5053023;28;20067;-58
2023/12/16 09:50:41;;;;;;;21.45;5.28;;;;;;;7.09;100.00;103866.13;5060361;28;20032;-58
2023/12/16 09:53:06;;;;;;;21.63;4.88;;;;;;;7.18;100.00;103873.16;5071679;28;20082;-57
2023/12/16 09:55:32;;;;;;;21.08;5.30;;;;;;;7.28;100.00;103869.97;5060592;28;20053;-58
2023/12/16 09:57:58;;;;;;;22.00;5.80;;;;;;;7.24;100.00;103870.59;5057919;28;20033;-57
2023/12/16 10:00:27;;;;;;;23.38;5.35;;;;;;;7.29;100.00;103874.44;5062027;28;20597;-56
2023/12/16 10:02:54;;;;;;;21.30;5.82;;;;;;;7.38;100.00;103888.00;5069552;28;20382;-56
2023/12/16 10:05:20;;;;;;;21.10;6.10;;;;;;;7.41;100.00;103876.56;5059545;28;20029;-56
2023/12/16 10:07:46;;;;;;;21.38;5.85;;;;;;;7.47;100.00;103884.84;5072099;28;20025;-56
2023/12/16 10:10:13;;;;;;;24.92;5.95;;;;;;;7.48;100.00;103883.78;5062888;28;20028;-56
2023/12/16 10:12:38;;;;;;;23.55;5.13;;;;;;;7.52;100.00;103881.47;5059163;28;20544;-56
2023/12/16 10:15:04;;;;;;;22.92;5.75;;;;;;;7.55;100.00;103877.44;5067695;28;20024;-56
2023/12/16 10:17:31;;;;;;;23.15;5.95;;;;;;;7.60;100.00;103872.16;5055101;28;20190;-56
2023/12/16 10:19:56;;;;;;;23.40;6.43;;;;;;;7.62;100.00;103875.50;5053811;28;20060;-56
2023/12/16 10:22:21;;;;;;;24.98;6.40;;;;;;;7.68;100.00;103879.34;5071677;28;20472;-56
2023/12/16 10:24:47;;;;;;;20.80;5.70;;;;;;;7.63;100.00;103886.34;5062341;28;20044;-56
2023/12/16 10:27:13;;;;;;;24.80;6.53;;;;;;;7.61;100.00;103887.59;5060144;28;20468;-56
2023/12/16 10:29:40;;;;;;;24.33;6.55;;;;;;;7.61;100.00;103877.44;5059717;28;20068;-56
2023/12/16 10:32:10;;;;;;;23.65;7.13;;;;;;;7.61;100.00;103874.69;5062272;28;20074;-56
2023/12/16 10:34:35;;;;;;;24.25;6.32;;;;;;;7.63;100.00;103891.00;5057357;28;20032;-57
2023/12/16 10:37:08;;;;;;;24.90;6.90;;;;;;;7.65;100.00;103884.19;5063336;28;20040;-57
2023/12/16 10:39:35;;;;;;;28.38;9.30;;;;;;;7.67;100.00;103881.25;5051992;28;20021;-60
2023/12/16 10:42:00;;;;;;;27.58;7.72;;;;;;;7.70;100.00;103872.53;5067205;28;20122;-57
2023/12/16 10:44:26;;;;;;;27.58;8.73;;;;;;;7.73;100.00;103866.63;5054265;28;20044;-57
2023/12/16 10:46:54;;;;;;;28.25;9.48;;;;;;;7.77;100.00;103867.91;5062159;28;20036;-56
2023/12/16 10:49:27;;;;;;;28.08;9.07;;;;;;;7.77;100.00;103861.53;5067146;28;20025;-56
2023/12/16 10:52:04;;;;;;;25.45;7.90;;;;;;;7.77;100.00;103859.63;5064944;28;20435;-56
2023/12/16 10:54:36;;;;;;;25.40;7.13;;;;;;;7.77;100.00;103859.63;5045742;28;20481;-56
2023/12/16 10:57:35;;;;;;;24.83;7.15;;;;;;;7.81;100.00;103857.28;5054263;28;20051;-56
2023/12/16 11:00:06;;;;;;;25.13;7.20;;;;;;;7.77;100.00;103840.34;5057229;28;20032;-56
2023/12/16 11:02:34;;;;;;;28.60;8.18;;;;;;;7.79;100.00;103845.63;5062094;28;20086;-56
2023/12/16 11:05:10;;;;;;;27.88;9.60;;;;;;;7.88;100.00;103854.53;5060100;28;20115;-56
2023/12/16 11:07:39;;;;;;;26.05;7.80;;;;;;;7.88;100.00;103849.84;5040941;28;20072;-57
2023/12/16 11:10:05;;;;;;;26.65;8.05;;;;;;;7.88;100.00;103849.84;5049726;28;20549;-55